createdAt,value
2022-09-02T00:01:49.288Z,58.20
2022-09-02T00:03:40.113Z,58.10
2022-09-02T00:05:30.888Z,58.70
2022-09-02T00:07:21.574Z,58.90
2022-09-02T00:09:18.312Z,58.90
2022-09-02T00:11:14.169Z,59.20
2022-09-02T00:13:06.981Z,59.20
2022-09-02T00:14:57.646Z,58.90
2022-09-02T00:16:48.507Z,59.30
2022-09-02T00:18:40.197Z,59.60
2022-09-02T00:20:35.049Z,59.80
2022-09-02T00:22:27.001Z,59.60
2022-09-02T00:24:19.376Z,59.80
2022-09-02T00:26:10.395Z,60.00
2022-09-02T00:28:01.598Z,60.00
2022-09-02T00:29:52.472Z,59.70
2022-09-02T00:31:43.941Z,59.50
2022-09-02T00:33:34.951Z,59.80
2022-09-02T00:35:25.774Z,59.90
2022-09-02T00:37:16.635Z,60.20
2022-09-02T00:39:07.648Z,60.00
2022-09-02T00:41:00.460Z,60.40
2022-09-02T00:42:52.103Z,60.50
2022-09-02T00:44:42.767Z,60.00
2022-09-02T00:46:33.870Z,60.60
2022-09-02T00:48:24.554Z,60.40
2022-09-02T00:50:18.678Z,60.20
2022-09-02T00:52:13.211Z,60.30
2022-09-02T00:54:04.958Z,59.70
2022-09-02T00:55:55.541Z,59.70
2022-09-02T00:57:50.079Z,60.40
2022-09-02T00:59:45.369Z,60.10
2022-09-02T01:01:36.097Z,60.60
2022-09-02T01:03:31.530Z,60.70
2022-09-02T01:05:24.224Z,60.70
2022-09-02T01:07:14.406Z,60.80
2022-09-02T01:09:10.059Z,60.90
2022-09-02T01:11:02.234Z,61.50
2022-09-02T01:13:00.075Z,61.50
2022-09-02T01:14:50.790Z,61.70
2022-09-02T01:16:43.314Z,61.40
2022-09-02T01:18:34.311Z,61.70
2022-09-02T01:20:26.084Z,61.90
2022-09-02T01:22:20.251Z,61.40
2022-09-02T01:24:11.058Z,61.30
2022-09-02T01:26:02.300Z,61.30
2022-09-02T01:27:52.742Z,61.50
2022-09-02T01:29:43.467Z,61.40
2022-09-02T01:31:34.506Z,61.60
2022-09-02T01:33:26.247Z,61.80
2022-09-02T01:35:17.854Z,61.60
2022-09-02T01:37:08.481Z,61.40
2022-09-02T01:39:00.089Z,61.70
2022-09-02T01:40:51.017Z,61.80
2022-09-02T01:42:42.633Z,61.80
2022-09-02T01:44:33.800Z,61.90
2022-09-02T01:46:24.510Z,62.10
2022-09-02T01:48:21.332Z,61.80
2022-09-02T01:50:12.491Z,61.90
2022-09-02T01:52:03.873Z,62.00
2022-09-02T01:53:54.126Z,62.20
2022-09-02T01:55:46.454Z,62.70
2022-09-02T01:57:37.300Z,62.70
2022-09-02T01:59:27.642Z,63.20
2022-09-02T02:01:17.933Z,63.10
2022-09-02T02:03:08.791Z,63.30
2022-09-02T02:05:00.101Z,63.30
2022-09-02T02:06:53.515Z,63.20
2022-09-02T02:08:45.724Z,63.20
2022-09-02T02:10:36.340Z,63.40
2022-09-02T02:12:28.340Z,63.70
2022-09-02T02:14:19.108Z,63.40
2022-09-02T02:16:10.478Z,63.60
2022-09-02T02:18:00.685Z,63.80
2022-09-02T02:19:51.021Z,63.60
2022-09-02T02:21:41.622Z,63.90
2022-09-02T02:23:32.137Z,63.80
2022-09-02T02:25:22.954Z,63.60
2022-09-02T02:27:13.782Z,63.90
2022-09-02T02:29:05.532Z,63.70
2022-09-02T02:30:56.273Z,63.60
2022-09-02T02:32:47.395Z,63.80
2022-09-02T02:34:37.679Z,64.00
2022-09-02T02:36:28.188Z,64.00
2022-09-02T02:38:18.233Z,64.20
2022-09-02T02:40:10.498Z,64.20
2022-09-02T02:42:01.173Z,64.00
2022-09-02T02:43:51.718Z,64.00
2022-09-02T02:45:43.609Z,63.60
2022-09-02T02:47:34.236Z,63.80
2022-09-02T02:49:24.805Z,63.90
2022-09-02T02:51:15.274Z,63.70
2022-09-02T02:53:05.638Z,63.80
2022-09-02T02:54:56.207Z,63.70
2022-09-02T02:56:46.882Z,63.90
2022-09-02T02:58:37.885Z,64.20
2022-09-02T03:00:30.526Z,64.30
2022-09-02T03:02:22.671Z,64.20
2022-09-02T03:04:13.424Z,64.00
2022-09-02T03:06:04.062Z,64.30
2022-09-02T03:07:54.990Z,64.30
2022-09-02T03:09:45.719Z,64.50
2022-09-02T03:11:36.239Z,64.30
2022-09-02T03:13:26.983Z,64.10
2022-09-02T03:15:20.703Z,64.20
2022-09-02T03:17:10.956Z,64.30
2022-09-02T03:19:03.375Z,64.20
2022-09-02T03:20:53.697Z,64.10
2022-09-02T03:22:44.430Z,64.00
2022-09-02T03:24:35.096Z,64.80
2022-09-02T03:26:25.739Z,64.90
2022-09-02T03:28:16.803Z,65.00
2022-09-02T03:30:09.627Z,65.10
2022-09-02T03:32:00.253Z,64.80
2022-09-02T03:33:53.676Z,65.10
2022-09-02T03:35:45.624Z,65.00
2022-09-02T03:37:36.644Z,64.90
2022-09-02T03:39:26.929Z,64.70
2022-09-02T03:41:17.281Z,64.60
2022-09-02T03:43:08.611Z,64.90
2022-09-02T03:44:58.752Z,64.60
2022-09-02T03:46:49.075Z,64.60
2022-09-02T03:48:39.449Z,64.50
2022-09-02T03:50:32.202Z,64.90
2022-09-02T03:52:24.432Z,65.20
2022-09-02T03:54:14.730Z,65.30
2022-09-02T03:56:06.805Z,65.70
2022-09-02T03:57:57.109Z,65.70
2022-09-02T03:59:47.896Z,65.30
2022-09-02T04:01:38.556Z,65.70
2022-09-02T04:03:29.398Z,65.40
2022-09-02T04:05:20.385Z,65.60
2022-09-02T04:07:10.797Z,65.40
2022-09-02T04:09:02.533Z,65.60
2022-09-02T04:10:52.833Z,65.60
2022-09-02T04:12:43.710Z,65.70
2022-09-02T04:14:34.302Z,65.80
2022-09-02T04:16:25.886Z,65.90
2022-09-02T04:18:17.114Z,65.90
2022-09-02T04:20:09.681Z,65.50
2022-09-02T04:22:00.299Z,65.60
2022-09-02T04:23:50.608Z,65.50
2022-09-02T04:25:43.699Z,65.60
2022-09-02T04:27:35.088Z,65.50
2022-09-02T04:29:25.402Z,65.30
2022-09-02T04:31:17.968Z,65.40
2022-09-02T04:33:08.235Z,65.10
2022-09-02T04:34:58.809Z,65.10
2022-09-02T04:36:49.345Z,65.00
2022-09-02T04:38:39.690Z,65.10
2022-09-02T04:40:30.626Z,64.80
2022-09-02T04:42:22.812Z,64.50
2022-09-02T04:44:13.163Z,64.70
2022-09-02T04:46:04.960Z,64.70
2022-09-02T04:47:55.996Z,64.40
2022-09-02T04:49:46.431Z,64.70
2022-09-02T04:51:37.334Z,64.20
2022-09-02T04:53:28.951Z,64.20
2022-09-02T04:55:19.274Z,64.20
2022-09-02T04:57:09.754Z,64.90
2022-09-02T04:59:01.724Z,65.00
2022-09-02T05:00:52.178Z,64.90
2022-09-02T05:02:42.719Z,65.10
2022-09-02T05:04:33.992Z,65.40
2022-09-02T05:06:26.147Z,65.70
2022-09-02T05:08:16.561Z,65.40
2022-09-02T05:10:08.237Z,65.40
2022-09-02T05:11:58.554Z,65.40
2022-09-02T05:13:50.659Z,65.30
2022-09-02T05:15:42.399Z,65.20
2022-09-02T05:17:32.919Z,65.40
2022-09-02T05:19:24.858Z,65.80
2022-09-02T05:21:15.772Z,66.10
2022-09-02T05:23:06.774Z,66.00
2022-09-02T05:24:57.774Z,66.30
2022-09-02T05:26:48.254Z,66.30
2022-09-02T05:28:39.184Z,66.40
2022-09-02T05:30:29.643Z,66.70
2022-09-02T05:32:21.390Z,66.50
2022-09-02T05:34:12.009Z,66.70
2022-09-02T05:36:03.551Z,66.80
2022-09-02T05:37:57.475Z,66.40
2022-09-02T05:39:51.696Z,66.40
2022-09-02T05:41:42.670Z,66.40
2022-09-02T05:43:35.595Z,66.50
2022-09-02T05:45:27.072Z,66.40
2022-09-02T05:47:17.914Z,66.80
2022-09-02T05:49:09.815Z,66.80
2022-09-02T05:51:04.351Z,66.30
2022-09-02T05:52:54.795Z,66.00
2022-09-02T05:54:45.488Z,65.80
2022-09-02T05:56:38.218Z,65.60
2022-09-02T05:58:28.694Z,65.80
2022-09-02T06:00:19.461Z,66.00
2022-09-02T06:02:11.102Z,66.10
2022-09-02T06:04:02.761Z,65.60
2022-09-02T06:05:56.152Z,65.50
2022-09-02T06:07:47.009Z,65.50
2022-09-02T06:09:37.830Z,65.10
2022-09-02T06:11:28.670Z,64.60
2022-09-02T06:13:19.216Z,64.90
2022-09-02T06:15:11.041Z,64.90
2022-09-02T06:17:01.660Z,65.00
2022-09-02T06:18:52.527Z,64.90
2022-09-02T06:20:44.212Z,64.70
2022-09-02T06:22:36.404Z,64.80
2022-09-02T06:24:28.087Z,64.60
2022-09-02T06:26:18.611Z,64.50
2022-09-02T06:28:09.767Z,63.50
2022-09-02T06:30:00.676Z,63.20
2022-09-02T06:31:51.665Z,63.20
2022-09-02T06:33:42.631Z,62.40
2022-09-02T06:35:37.546Z,62.80
2022-09-02T06:37:28.410Z,62.60
2022-09-02T06:39:22.270Z,62.30
2022-09-02T06:41:14.005Z,62.50
2022-09-02T06:43:04.495Z,62.20
2022-09-02T06:44:55.007Z,61.90
2022-09-02T06:46:47.044Z,62.30
2022-09-02T06:48:37.812Z,62.00
2022-09-02T06:50:28.260Z,61.70
2022-09-02T06:52:19.207Z,61.90
2022-09-02T06:54:11.261Z,62.00
2022-09-02T06:56:08.477Z,62.60
2022-09-02T06:57:58.798Z,62.60
2022-09-02T06:59:49.302Z,62.60
2022-09-02T07:01:40.346Z,62.60
2022-09-02T07:03:31.159Z,62.40
2022-09-02T07:05:21.900Z,62.40
2022-09-02T07:07:12.265Z,62.20
2022-09-02T07:09:03.325Z,62.20
2022-09-02T07:10:53.831Z,62.20
2022-09-02T07:12:45.513Z,62.30
2022-09-02T07:14:37.683Z,61.80
2022-09-02T07:16:28.514Z,62.40
2022-09-02T07:18:18.990Z,62.20
2022-09-02T07:20:10.265Z,62.40
2022-09-02T07:22:02.847Z,62.10
2022-09-02T07:23:53.434Z,62.40
2022-09-02T07:25:44.074Z,62.30
2022-09-02T07:27:35.250Z,62.30
2022-09-02T07:29:26.993Z,62.10
2022-09-02T07:31:18.458Z,62.20
2022-09-02T07:33:10.105Z,62.20
2022-09-02T07:35:01.013Z,61.90
2022-09-02T07:36:52.296Z,62.10
2022-09-02T07:38:43.790Z,62.20
2022-09-02T07:40:34.785Z,61.80
2022-09-02T07:42:25.528Z,61.80
2022-09-02T07:44:16.137Z,61.60
2022-09-02T07:46:08.097Z,61.40
2022-09-02T07:47:58.960Z,61.60
2022-09-02T07:52:00.524Z,61.60
2022-09-02T07:53:51.300Z,61.50
2022-09-02T07:55:43.249Z,61.60
2022-09-02T07:57:33.624Z,61.10
2022-09-02T07:59:24.365Z,61.40
2022-09-02T08:01:20.078Z,61.10
2022-09-02T08:03:14.519Z,61.40
2022-09-02T08:05:05.515Z,61.60
2022-09-02T08:06:56.089Z,61.70
2022-09-02T08:08:47.059Z,61.70
2022-09-02T08:10:38.706Z,61.60
2022-09-02T08:12:29.245Z,60.60
2022-09-02T08:14:21.629Z,60.50
2022-09-02T08:16:12.363Z,60.20
2022-09-02T08:18:05.139Z,60.40
2022-09-02T08:19:55.739Z,59.90
2022-09-02T08:21:46.120Z,60.00
2022-09-02T08:23:37.717Z,60.00
2022-09-02T08:25:28.484Z,59.90
2022-09-02T08:27:18.820Z,59.70
2022-09-02T08:29:09.621Z,59.90
2022-09-02T08:31:05.457Z,59.20
2022-09-02T08:32:56.792Z,59.60
2022-09-02T08:34:48.598Z,60.00
2022-09-02T08:36:39.186Z,59.70
2022-09-02T08:38:34.818Z,59.50
2022-09-02T08:40:28.965Z,59.40
2022-09-02T08:42:23.261Z,59.30
2022-09-02T08:44:18.960Z,59.50
2022-09-02T08:46:12.528Z,59.30
2022-09-02T08:48:06.350Z,59.50
2022-09-02T08:50:01.205Z,59.20
2022-09-02T08:51:53.695Z,59.20
2022-09-02T08:53:47.621Z,59.10
2022-09-02T08:55:43.462Z,58.70
2022-09-02T08:57:35.528Z,57.80
2022-09-02T08:59:33.908Z,58.20
2022-09-02T09:01:32.958Z,57.60
2022-09-02T09:03:26.276Z,57.80
2022-09-02T09:05:26.231Z,57.60
2022-09-02T09:07:22.374Z,57.70
2022-09-02T09:09:17.452Z,57.70
2022-09-02T09:11:15.188Z,57.90
2022-09-02T09:13:39.415Z,57.10
2022-09-02T09:15:37.866Z,57.50
2022-09-02T09:17:30.827Z,57.80
2022-09-02T09:19:27.275Z,57.90
2022-09-02T09:21:19.372Z,58.20
2022-09-02T09:23:16.013Z,57.90
2022-09-02T09:25:12.282Z,58.40
2022-09-02T09:27:04.956Z,58.30
2022-09-02T09:28:55.316Z,58.30
2022-09-02T09:30:45.901Z,58.50
2022-09-02T09:32:38.444Z,58.70
2022-09-02T09:34:54.580Z,59.00
2022-09-02T09:36:54.312Z,58.90
2022-09-02T09:38:45.002Z,59.20
2022-09-02T09:40:35.842Z,59.00
2022-09-02T09:42:32.502Z,59.10
2022-09-02T09:44:37.577Z,59.10
2022-09-02T09:46:29.744Z,58.60
2022-09-02T09:48:23.165Z,58.80
2022-09-02T09:50:16.768Z,58.70
2022-09-02T09:52:09.128Z,59.00
2022-09-02T09:54:14.898Z,58.40
2022-09-02T09:56:06.872Z,58.20
2022-09-02T09:58:08.235Z,57.40
2022-09-02T09:59:58.642Z,57.20
2022-09-02T10:01:50.577Z,56.30
2022-09-02T10:03:41.787Z,55.90
2022-09-02T10:05:35.112Z,55.80
2022-09-02T10:07:38.533Z,56.00
2022-09-02T10:09:32.281Z,56.60
2022-09-02T10:11:25.329Z,55.90
2022-09-02T10:13:22.003Z,55.40
2022-09-02T10:15:12.676Z,55.70
2022-09-02T10:17:23.887Z,55.80
2022-09-02T10:19:22.316Z,55.00
2022-09-02T10:21:21.968Z,55.30
2022-09-02T10:23:21.477Z,55.00
2022-09-02T10:25:20.456Z,55.40
2022-09-02T10:27:15.306Z,55.30
2022-09-02T10:29:27.131Z,55.50
2022-09-02T10:31:22.461Z,55.10
2022-09-02T10:33:25.274Z,54.80
2022-09-02T10:35:22.589Z,55.50
2022-09-02T10:37:18.250Z,54.20
2022-09-02T10:39:19.201Z,54.20
2022-09-02T10:41:31.797Z,53.80
2022-09-02T10:43:25.700Z,53.80
2022-09-02T10:45:23.727Z,53.60
2022-09-02T10:47:19.279Z,53.30
2022-09-02T10:49:14.803Z,52.90
2022-09-02T10:51:10.127Z,53.20
2022-09-02T10:53:10.171Z,53.40
2022-09-02T10:55:09.342Z,53.10
2022-09-02T10:57:01.909Z,52.70
2022-09-02T10:58:54.186Z,52.50
2022-09-02T11:00:47.506Z,51.60
2022-09-02T11:02:40.793Z,51.30
2022-09-02T11:04:35.559Z,50.90
2022-09-02T11:06:35.353Z,51.10
2022-09-02T11:08:34.023Z,51.00
2022-09-02T11:10:28.698Z,51.40
2022-09-02T11:12:21.285Z,51.30
2022-09-02T11:14:21.044Z,51.00
2022-09-02T11:16:15.157Z,51.50
2022-09-02T11:18:09.548Z,51.00
2022-09-02T11:20:05.614Z,51.20
2022-09-02T11:22:01.613Z,51.30
2022-09-02T11:23:55.329Z,51.40
2022-09-02T11:25:50.503Z,50.90
2022-09-02T11:27:43.983Z,50.30
2022-09-02T11:29:40.149Z,50.30
2022-09-02T11:31:36.975Z,50.60
2022-09-02T11:33:32.222Z,49.90
2022-09-02T11:35:24.025Z,49.90
2022-09-02T11:37:26.311Z,49.80
2022-09-02T11:39:30.521Z,48.90
2022-09-02T11:41:45.216Z,49.10
2022-09-02T11:43:40.386Z,49.70
2022-09-02T11:45:47.312Z,48.60
2022-09-02T11:48:04.482Z,48.40
2022-09-02T11:50:11.796Z,48.30
2022-09-02T11:52:05.683Z,47.80
2022-09-02T11:53:56.725Z,48.20
2022-09-02T11:55:49.980Z,48.30
2022-09-02T11:57:41.651Z,47.70
2022-09-02T12:00:11.792Z,47.90
2022-09-02T12:02:02.641Z,47.00
2022-09-02T12:04:42.043Z,47.20
2022-09-02T12:06:11.171Z,48.10
2022-09-02T12:08:03.383Z,46.70
2022-09-02T12:09:55.254Z,46.50
2022-09-02T12:11:51.747Z,45.60
2022-09-02T12:13:44.100Z,46.00
2022-09-02T12:15:34.485Z,45.20
2022-09-02T12:17:36.605Z,45.40
2022-09-02T12:19:32.938Z,45.20
2022-09-02T12:21:24.704Z,44.50
2022-09-02T12:23:48.776Z,44.60
2022-09-02T12:25:44.522Z,44.10
2022-09-02T12:27:35.643Z,44.50
2022-09-02T12:29:34.271Z,43.70
2022-09-02T12:31:43.507Z,43.10
2022-09-02T12:33:35.565Z,43.30
2022-09-02T12:35:37.209Z,43.40
2022-09-02T12:37:53.892Z,41.50
2022-09-02T12:39:55.208Z,41.60
2022-09-02T12:41:45.588Z,41.30
2022-09-02T12:43:44.080Z,39.70
2022-09-02T12:45:41.518Z,40.40
2022-09-02T12:47:42.788Z,38.30
2022-09-02T12:49:49.092Z,38.30
2022-09-02T12:51:53.786Z,39.00
2022-09-02T12:53:47.038Z,39.10
2022-09-02T12:55:38.350Z,37.50
2022-09-02T12:57:39.114Z,36.70
2022-09-02T12:59:31.702Z,38.10
2022-09-02T13:01:34.130Z,37.40
2022-09-02T13:03:52.296Z,37.90
2022-09-02T13:05:53.629Z,37.40
2022-09-02T13:08:07.023Z,38.40
2022-09-02T13:10:21.110Z,37.00
2022-09-02T13:12:41.902Z,37.50
2022-09-02T13:14:54.715Z,36.20
2022-09-02T13:20:12.944Z,36.10
2022-09-02T13:22:15.045Z,37.40
2022-09-02T13:24:19.774Z,37.00
2022-09-02T13:26:47.838Z,36.20
2022-09-02T13:29:05.462Z,36.30
2022-09-02T13:31:07.712Z,36.60
2022-09-02T13:32:59.832Z,36.40
2022-09-02T13:34:52.562Z,36.70
2022-09-02T13:36:46.078Z,36.30
2022-09-02T13:38:38.802Z,36.40
2022-09-02T13:40:31.139Z,36.20
2022-09-02T13:42:24.524Z,36.40
2022-09-02T13:44:21.435Z,36.60
2022-09-02T13:46:12.020Z,36.40
2022-09-02T13:48:07.879Z,36.60
2022-09-02T13:49:59.948Z,36.40
2022-09-02T13:51:54.118Z,36.90
2022-09-02T13:54:18.665Z,36.70
2022-09-02T13:55:59.213Z,36.50
2022-09-02T13:57:55.614Z,36.40
2022-09-02T13:59:48.442Z,36.10
2022-09-02T14:01:39.054Z,35.80
2022-09-02T14:03:31.029Z,35.80
2022-09-02T14:05:23.166Z,35.40
2022-09-02T14:07:16.056Z,35.70
2022-09-02T14:09:08.879Z,35.90
2022-09-02T14:11:00.119Z,36.40
2022-09-02T14:12:52.187Z,36.90
2022-09-02T14:14:43.029Z,37.30
2022-09-02T14:16:35.116Z,37.80
2022-09-02T14:18:25.496Z,37.60
2022-09-02T14:20:20.952Z,37.60
2022-09-02T14:22:23.446Z,38.30
2022-09-02T14:24:16.462Z,37.80
2022-09-02T14:26:06.817Z,37.30
2022-09-02T14:27:58.357Z,36.70
2022-09-02T14:29:53.825Z,36.60
2022-09-02T14:31:44.941Z,36.60
2022-09-02T14:33:40.868Z,36.50
2022-09-02T14:35:31.354Z,36.30
2022-09-02T14:37:25.472Z,36.60
2022-09-02T14:39:17.476Z,35.80
2022-09-02T14:41:12.262Z,36.50
2022-09-02T14:43:03.836Z,36.60
2022-09-02T14:44:54.385Z,36.00
2022-09-02T14:46:46.136Z,36.50
2022-09-02T14:48:38.590Z,36.40
2022-09-02T14:50:31.712Z,36.60
2022-09-02T14:52:26.010Z,36.50
2022-09-02T14:54:35.212Z,36.50
2022-09-02T14:56:48.354Z,36.10
2022-09-02T14:58:38.939Z,36.20
2022-09-02T15:00:33.986Z,36.80
2022-09-02T15:02:30.839Z,36.50
2022-09-02T15:04:21.646Z,36.10
2022-09-02T15:06:15.261Z,36.30
2022-09-02T15:08:07.407Z,36.60
2022-09-02T15:09:58.194Z,36.40
2022-09-02T15:11:53.126Z,35.70
2022-09-02T15:13:43.897Z,36.50
2022-09-02T15:15:34.662Z,36.10
2022-09-02T15:17:26.130Z,36.50
2022-09-02T15:19:17.654Z,36.50
2022-09-02T15:21:08.123Z,36.60
2022-09-02T15:22:59.212Z,36.40
2022-09-02T15:24:51.406Z,36.40
2022-09-02T15:26:42.488Z,35.90
2022-09-02T15:28:33.187Z,35.70
2022-09-02T15:30:24.387Z,35.50
2022-09-02T15:32:14.789Z,35.70
2022-09-02T15:34:05.096Z,35.60
2022-09-02T15:35:55.708Z,35.70
2022-09-02T15:37:49.729Z,35.00
2022-09-02T15:39:40.780Z,35.50
2022-09-02T15:41:32.955Z,35.60
2022-09-02T15:43:24.143Z,35.90
2022-09-02T15:45:15.702Z,35.90
2022-09-02T15:47:06.768Z,36.30
2022-09-02T15:49:03.004Z,36.70
2022-09-02T15:50:54.622Z,36.30
2022-09-02T15:52:45.079Z,35.40
2022-09-02T15:54:35.953Z,35.90
2022-09-02T15:56:28.602Z,35.90
2022-09-02T15:58:21.085Z,35.80
2022-09-02T16:00:13.338Z,35.80
2022-09-02T16:02:04.188Z,35.90
2022-09-02T16:03:55.211Z,36.00
2022-09-02T16:05:45.675Z,36.80
2022-09-02T16:07:36.314Z,36.30
2022-09-02T16:09:27.132Z,36.30
2022-09-02T16:11:17.895Z,36.20
2022-09-02T16:13:09.018Z,36.00
2022-09-02T16:15:00.703Z,35.30
2022-09-02T16:16:53.427Z,35.70
2022-09-02T16:18:49.640Z,35.90
2022-09-02T16:20:40.012Z,36.00
2022-09-02T16:22:30.835Z,36.30
2022-09-02T16:24:21.442Z,36.20
2022-09-02T16:26:15.461Z,36.50
2022-09-02T16:28:06.129Z,37.00
2022-09-02T16:29:57.028Z,37.50
2022-09-02T16:32:07.562Z,37.50
2022-09-02T16:34:02.771Z,37.00
2022-09-02T16:35:53.406Z,37.50
2022-09-02T16:37:44.975Z,37.90
2022-09-02T16:39:35.473Z,37.60
2022-09-02T16:41:28.717Z,38.00
2022-09-02T16:43:19.167Z,37.30
2022-09-02T16:45:10.299Z,37.70
2022-09-02T16:47:02.281Z,37.40
2022-09-02T16:48:53.060Z,37.70
2022-09-02T16:50:43.852Z,37.40
2022-09-02T16:52:35.015Z,37.70
2022-09-02T16:54:31.626Z,38.30
2022-09-02T16:56:23.138Z,37.90
2022-09-02T16:58:13.996Z,38.00
2022-09-02T17:00:05.946Z,38.20
2022-09-02T17:01:56.692Z,38.10
2022-09-02T17:03:49.470Z,38.20
2022-09-02T17:05:40.363Z,38.30
2022-09-02T17:07:30.970Z,38.10
2022-09-02T17:09:21.754Z,38.50
2022-09-02T17:11:18.619Z,38.40
2022-09-02T17:13:08.941Z,38.20
2022-09-02T17:14:59.368Z,38.20
2022-09-02T17:16:51.827Z,38.60
2022-09-02T17:18:43.418Z,38.30
2022-09-02T17:20:35.179Z,38.70
2022-09-02T17:22:25.774Z,38.60
2022-09-02T17:24:20.304Z,38.60
2022-09-02T17:26:11.097Z,38.50
2022-09-02T17:28:02.316Z,38.20
2022-09-02T17:29:53.350Z,38.50
2022-09-02T17:31:44.331Z,38.70
2022-09-02T17:33:35.181Z,39.10
2022-09-02T17:35:25.910Z,39.10
2022-09-02T17:37:18.211Z,39.40
2022-09-02T17:39:10.061Z,39.60
2022-09-02T17:41:00.450Z,39.90
2022-09-02T17:42:51.118Z,39.90
2022-09-02T17:44:41.816Z,40.00
2022-09-02T17:46:32.385Z,40.00
2022-09-02T17:48:39.013Z,39.90
2022-09-02T17:50:35.868Z,39.90
2022-09-02T17:52:27.997Z,40.80
2022-09-02T17:54:18.756Z,40.50
2022-09-02T17:56:45.865Z,40.70
2022-09-02T17:58:45.432Z,40.60
2022-09-02T18:00:44.246Z,40.90
2022-09-02T18:03:06.449Z,41.50
2022-09-02T18:05:04.256Z,41.60
2022-09-02T18:06:58.417Z,42.20
2022-09-02T18:08:55.033Z,42.80
2022-09-02T18:10:55.208Z,42.90
2022-09-02T18:12:48.579Z,43.10
2022-09-02T18:14:44.236Z,43.30
2022-09-02T18:16:38.592Z,43.30
2022-09-02T18:18:29.192Z,43.30
2022-09-02T18:20:24.958Z,43.60
2022-09-02T18:22:32.419Z,43.90
2022-09-02T18:24:32.690Z,43.80
2022-09-02T18:26:29.696Z,44.10
2022-09-02T18:28:31.532Z,44.10
2022-09-02T18:30:25.122Z,43.80
2022-09-02T18:32:23.838Z,43.70
2022-09-02T18:34:30.477Z,43.80
2022-09-02T18:36:29.885Z,43.90
2022-09-02T18:38:27.569Z,44.20
2022-09-02T18:40:28.781Z,44.40
2022-09-02T18:42:27.659Z,44.60
2022-09-02T18:44:25.948Z,44.70
2022-09-02T18:46:17.547Z,44.60
2022-09-02T18:48:10.336Z,44.80
2022-09-02T18:50:04.580Z,45.20
2022-09-02T18:51:59.157Z,44.70
2022-09-02T18:53:54.423Z,44.60
2022-09-02T18:55:47.965Z,44.90
2022-09-02T18:57:45.526Z,45.00
2022-09-02T18:59:40.229Z,44.60
2022-09-02T19:01:32.803Z,44.80
2022-09-02T19:03:23.194Z,44.80
2022-09-02T19:05:17.032Z,44.90
2022-09-02T19:07:08.351Z,44.90
2022-09-02T19:09:02.273Z,45.50
2022-09-02T19:10:59.166Z,45.40
2022-09-02T19:12:50.048Z,45.30
2022-09-02T19:14:40.826Z,45.30
2022-09-02T19:16:33.545Z,45.70
2022-09-02T19:18:24.304Z,45.80
2022-09-02T19:20:15.533Z,45.70
2022-09-02T19:22:07.787Z,45.90
2022-09-02T19:23:58.030Z,46.20
2022-09-02T19:25:49.285Z,46.50
2022-09-02T19:27:44.723Z,46.50
2022-09-02T19:29:39.840Z,46.60
2022-09-02T19:31:30.415Z,46.60
2022-09-02T19:33:20.782Z,46.50
2022-09-02T19:35:13.569Z,46.60
2022-09-02T19:37:04.546Z,46.60
2022-09-02T19:38:55.545Z,46.60
2022-09-02T19:40:46.580Z,46.70
2022-09-02T19:42:37.201Z,46.70
2022-09-02T19:44:29.104Z,46.50
2022-09-02T19:46:55.728Z,46.60
2022-09-02T19:48:32.948Z,46.60
2022-09-02T19:50:23.990Z,46.60
2022-09-02T19:52:15.373Z,46.50
2022-09-02T19:54:06.492Z,46.40
2022-09-02T19:55:57.791Z,46.50
2022-09-02T19:57:48.472Z,46.80
2022-09-02T19:59:41.485Z,46.90
2022-09-02T20:01:31.955Z,46.50
2022-09-02T20:03:22.815Z,46.50
2022-09-02T20:05:14.021Z,46.60
2022-09-02T20:07:04.488Z,46.80
2022-09-02T20:08:55.038Z,46.90
2022-09-02T20:10:52.940Z,46.70
2022-09-02T20:12:44.029Z,46.60
2022-09-02T20:14:35.919Z,46.80
2022-09-02T20:16:28.128Z,46.70
2022-09-02T20:18:20.093Z,46.80
2022-09-02T20:20:15.434Z,46.80
2022-09-02T20:22:05.886Z,46.70
2022-09-02T20:23:59.141Z,46.80
2022-09-02T20:26:01.835Z,46.60
2022-09-02T20:27:55.806Z,46.80
2022-09-02T20:30:04.622Z,46.50
2022-09-02T20:32:04.772Z,46.70
2022-09-02T20:34:01.039Z,46.70
2022-09-02T20:36:04.369Z,46.60
2022-09-02T20:38:03.960Z,46.70
2022-09-02T20:40:20.802Z,46.50
2022-09-02T20:42:28.191Z,46.70
2022-09-02T20:44:28.871Z,46.60
2022-09-02T20:46:30.784Z,46.80
2022-09-02T20:48:31.876Z,46.70
2022-09-02T20:50:37.659Z,46.80
2022-09-02T20:52:35.441Z,47.00
2022-09-02T20:54:35.408Z,47.00
2022-09-02T20:56:30.436Z,47.10
2022-09-02T20:58:31.932Z,47.20
2022-09-02T21:00:22.318Z,47.20
2022-09-02T21:02:14.827Z,47.20
2022-09-02T21:04:16.509Z,47.20
2022-09-02T21:06:10.065Z,47.20
2022-09-02T21:08:03.020Z,47.30
2022-09-02T21:09:58.512Z,47.50
2022-09-02T21:11:55.333Z,47.50
2022-09-02T21:13:49.152Z,47.50
2022-09-02T21:15:45.108Z,47.80
2022-09-02T21:17:39.119Z,48.00
2022-09-02T21:19:35.310Z,47.90
2022-09-02T21:21:30.297Z,48.10
2022-09-02T21:23:25.300Z,48.10
2022-09-02T21:25:20.165Z,48.40
2022-09-02T21:27:16.589Z,48.40
2022-09-02T21:29:13.434Z,48.30
2022-09-02T21:31:08.143Z,48.30
2022-09-02T21:33:00.250Z,48.20
2022-09-02T21:34:55.158Z,48.40
2022-09-02T21:36:46.826Z,48.60
2022-09-02T21:38:40.344Z,48.60
2022-09-02T21:40:46.099Z,48.80
2022-09-02T21:42:45.494Z,49.00
2022-09-02T21:44:46.366Z,48.90
2022-09-02T21:46:45.013Z,48.90
2022-09-02T21:48:44.539Z,49.20
2022-09-02T21:50:44.257Z,49.30
2022-09-02T21:52:44.399Z,49.40
2022-09-02T21:54:52.703Z,49.40
2022-09-02T21:56:52.584Z,49.30
2022-09-02T21:58:56.942Z,49.30
2022-09-02T22:00:51.791Z,49.40
2022-09-02T22:02:49.972Z,49.30
2022-09-02T22:04:52.028Z,49.30
2022-09-02T22:06:46.347Z,49.60
2022-09-02T22:08:40.278Z,49.70
2022-09-02T22:10:33.957Z,49.70
2022-09-02T22:12:24.536Z,49.90
2022-09-02T22:14:19.175Z,50.10
2022-09-02T22:16:18.186Z,50.10
2022-09-02T22:18:15.342Z,50.30
2022-09-02T22:20:07.354Z,50.30
2022-09-02T22:22:06.633Z,50.50
2022-09-02T22:23:57.819Z,50.40
2022-09-02T22:25:49.651Z,50.60
2022-09-02T22:27:44.704Z,50.40
2022-09-02T22:29:39.623Z,50.50
2022-09-02T22:31:33.032Z,50.60
2022-09-02T22:33:28.121Z,50.30
2022-09-02T22:35:26.844Z,50.40
2022-09-02T22:37:23.828Z,50.60
2022-09-02T22:39:16.940Z,50.80
2022-09-02T22:41:15.009Z,51.10
2022-09-02T22:43:08.643Z,51.40
2022-09-02T22:45:05.310Z,51.50
2022-09-02T22:47:02.360Z,51.40
2022-09-02T22:48:56.080Z,51.40
2022-09-02T22:50:49.756Z,51.50
2022-09-02T22:52:44.893Z,51.80
2022-09-02T22:54:36.270Z,51.90
2022-09-02T22:56:36.360Z,51.80
2022-09-02T22:58:53.799Z,51.60
2022-09-02T23:00:48.700Z,51.70
2022-09-02T23:02:44.437Z,51.80
2022-09-02T23:04:50.718Z,51.90
2022-09-02T23:06:41.084Z,52.00
2022-09-02T23:08:33.437Z,51.90
2022-09-02T23:10:24.464Z,52.00
2022-09-02T23:12:22.665Z,52.20
2022-09-02T23:14:20.203Z,52.10
2022-09-02T23:16:18.783Z,52.10
2022-09-02T23:18:14.529Z,52.30
2022-09-02T23:20:14.062Z,52.30
2022-09-02T23:22:10.837Z,52.60
2022-09-02T23:24:09.804Z,52.40
2022-09-02T23:26:09.797Z,52.30
2022-09-02T23:28:06.664Z,52.60
2022-09-02T23:29:57.991Z,52.70
2022-09-02T23:32:26.012Z,52.60
2022-09-02T23:34:25.087Z,52.90
2022-09-02T23:36:19.371Z,52.80
2022-09-02T23:38:23.737Z,52.70
2022-09-02T23:40:22.807Z,52.70
2022-09-02T23:42:13.558Z,52.70
2022-09-02T23:44:04.620Z,52.90
2022-09-02T23:45:58.687Z,52.90
2022-09-02T23:48:10.822Z,53.20
2022-09-02T23:50:09.414Z,53.40
2022-09-02T23:52:08.189Z,53.40
2022-09-02T23:54:13.423Z,53.60
2022-09-02T23:56:14.564Z,53.60
2022-09-02T23:58:19.152Z,53.70
